Time;durP1;ratioP1;P1;durP2;ratioP2;P2;SDS_P1;SDS_P2;PMS_P1;PMS_P2;Temp;Humidity;BMP_temperature;BMP_pressure;BME280_temperature;BME280_humidity;BME280_pressure;Samples;Min_cycle;Max_cycle;Signal;HPM_P1;HPM_P2
2021/10/14 00:00:04;;;;;;;;;34.25;29.75;;;;;17.45;69.70;100844.63;146606;612;46021;-73
2021/10/14 00:02:37;;;;;;;;;26.75;22.50;;;;;17.41;68.77;100846.25;146603;635;47012;-74
2021/10/14 00:05:12;;;;;;;;;21.50;20.00;;;;;17.39;69.71;100839.25;146606;743;45022;-72
2021/10/14 00:07:46;;;;;;;;;19.00;17.25;;;;;17.37;69.46;100833.06;146603;680;46017;-73
2021/10/14 00:10:20;;;;;;;;;15.25;13.75;;;;;17.36;69.98;100836.53;146606;573;46020;-72
2021/10/14 00:12:54;;;;;;;;;15.50;15.00;;;;;17.36;70.22;100836.53;146602;570;47012;-72
2021/10/14 00:15:29;;;;;;;;;13.25;12.00;;;;;17.35;70.64;100825.12;146604;581;46020;-73
2021/10/14 00:18:03;;;;;;;;;13.25;12.25;;;;;17.31;70.53;100824.19;146601;717;46016;-72
2021/10/14 00:20:37;;;;;;;;;15.00;13.00;;;;;17.30;70.51;100821.53;146605;577;46020;-71
2021/10/14 00:23:11;;;;;;;;;12.50;10.25;;;;;17.28;71.27;100817.97;146605;718;46013;-71
2021/10/14 00:25:45;;;;;;;;;15.00;13.75;;;;;17.25;71.67;100813.53;146606;665;46020;-73
2021/10/14 00:28:19;;;;;;;;;11.25;11.25;;;;;17.22;71.20;100812.59;146603;659;46016;-73
2021/10/14 00:30:53;;;;;;;;;14.50;13.00;;;;;17.18;72.13;100808.12;146607;648;46021;-74
2021/10/14 00:33:27;;;;;;;;;13.50;13.50;;;;;17.13;70.79;100812.34;146602;609;47018;-72
2021/10/14 00:36:01;;;;;;;;;14.75;13.50;;;;;17.11;70.71;100819.28;146607;621;46020;-73
2021/10/14 00:38:35;;;;;;;;;15.25;14.25;;;;;17.13;70.62;100810.59;146604;570;46013;-72
2021/10/14 00:41:09;;;;;;;;;14.00;12.75;;;;;17.15;71.01;100808.91;146607;588;46010;-73
2021/10/14 00:43:43;;;;;;;;;19.75;16.25;;;;;17.16;71.30;100809.81;146604;573;46016;-73
2021/10/14 00:46:23;;;;;;;;;17.25;14.75;;;;;17.21;72.14;100819.56;146605;583;46905;-73
2021/10/14 00:48:57;;;;;;;;;17.25;14.75;;;;;17.24;71.43;100824.00;146601;659;46016;-72
2021/10/14 00:51:31;;;;;;;;;18.50;15.25;;;;;17.27;71.05;100827.56;146608;630;46010;-71
2021/10/14 00:54:07;;;;;;;;;18.25;16.50;;;;;17.28;71.10;100828.47;146603;644;46913;-72
2021/10/14 00:56:41;;;;;;;;;17.00;16.50;;;;;17.29;71.00;100827.63;146606;572;46020;-72
2021/10/14 00:59:17;;;;;;;;;15.75;15.75;;;;;17.28;71.03;100824.09;146603;604;46017;-72
2021/10/14 01:01:52;;;;;;;;;15.00;15.00;;;;;17.27;71.77;100830.19;146606;677;46021;-69
2021/10/14 01:04:26;;;;;;;;;17.00;14.50;;;;;17.22;71.73;100825.69;146599;593;47016;-68
2021/10/14 01:07:00;;;;;;;;;16.25;15.25;;;;;17.17;71.58;100835.19;146608;699;45022;-73
2021/10/14 01:09:34;;;;;;;;;19.00;15.75;;;;;17.13;72.52;100831.56;146600;617;46016;-73
2021/10/14 01:12:08;;;;;;;;;16.25;15.75;;;;;17.13;71.98;100825.44;146606;690;46010;-72
2021/10/14 01:14:42;;;;;;;;;17.75;14.75;;;;;17.09;71.58;100822.75;146604;639;46016;-71
2021/10/14 01:17:16;;;;;;;;;16.75;16.50;;;;;17.07;71.62;100827.06;146609;574;46010;-72
2021/10/14 01:19:50;;;;;;;;;18.00;17.75;;;;;17.07;72.06;100828.78;146602;569;46034;-74
2021/10/14 01:22:24;;;;;;;;;20.00;19.00;;;;;17.08;71.64;100825.34;146605;571;46022;-73
2021/10/14 01:24:58;;;;;;;;;17.75;16.50;;;;;17.06;70.82;100820.03;146605;563;46016;-74
2021/10/14 01:27:32;;;;;;;;;20.00;17.25;;;;;17.08;71.23;100825.34;146607;591;46012;-75
2021/10/14 01:30:08;;;;;;;;;18.00;17.00;;;;;17.06;71.52;100827.00;146605;593;46017;-75
2021/10/14 01:32:44;;;;;;;;;18.00;16.75;;;;;17.06;73.25;100821.78;146603;588;47012;-77
2021/10/14 01:35:18;;;;;;;;;19.50;17.75;;;;;17.07;72.37;100819.22;146600;597;47018;-72
2021/10/14 01:37:52;;;;;;;;;19.25;18.00;;;;;17.05;72.10;100810.41;146607;609;46020;-71
2021/10/14 01:40:25;;;;;;;;;17.75;16.25;;;;;17.06;72.31;100813.91;146606;619;46016;-72
2021/10/14 01:42:59;;;;;;;;;19.50;16.50;;;;;17.04;71.91;100808.66;146606;628;46031;-71
2021/10/14 01:45:33;;;;;;;;;21.75;19.00;;;;;17.04;73.38;100813.91;146604;604;46016;-70
2021/10/14 01:48:07;;;;;;;;;22.50;20.75;;;;;17.04;72.31;100803.41;146607;629;45020;-70
2021/10/14 01:50:42;;;;;;;;;17.75;16.25;;;;;17.06;72.64;100813.91;146604;625;46017;-70
2021/10/14 01:53:16;;;;;;;;;22.00;19.25;;;;;17.06;72.55;100806.94;146607;597;46020;-70
2021/10/14 01:55:51;;;;;;;;;18.75;17.50;;;;;17.05;72.30;100806.91;146604;569;46018;-72
2021/10/14 01:58:25;;;;;;;;;20.50;17.50;;;;;17.06;72.82;100809.56;146604;567;46905;-74
2021/10/14 02:00:59;;;;;;;;;17.50;17.50;;;;;17.04;73.52;100807.75;146601;635;47019;-75
2021/10/14 02:03:33;;;;;;;;;15.25;15.00;;;;;17.02;72.72;100805.09;146606;571;46020;-74
2021/10/14 02:06:06;;;;;;;;;19.25;17.25;;;;;17.01;72.42;100805.97;146604;587;46016;-75
2021/10/14 02:08:40;;;;;;;;;16.50;15.25;;;;;17.01;72.59;100799.84;146609;620;45021;-75
2021/10/14 02:11:14;;;;;;;;;21.50;19.75;;;;;17.02;72.40;100793.75;146603;620;46016;-76
2021/10/14 02:13:48;;;;;;;;;18.75;17.00;;;;;17.02;72.48;100789.37;146606;588;46021;-75
2021/10/14 02:16:22;;;;;;;;;19.25;17.75;;;;;17.03;72.55;100783.28;146602;569;46034;-78
2021/10/14 02:19:00;;;;;;;;;20.50;16.00;;;;;17.03;71.80;100775.41;146603;629;46020;-74
2021/10/14 02:21:34;;;;;;;;;20.00;18.50;;;;;17.01;72.67;100768.41;146603;597;46017;-74
2021/10/14 02:24:08;;;;;;;;;22.50;20.25;;;;;16.98;73.05;100760.47;146605;575;46010;-75
2021/10/14 02:26:42;;;;;;;;;21.50;20.50;;;;;16.98;73.29;100769.19;146603;576;46016;-74
2021/10/14 02:29:16;;;;;;;;;21.00;18.25;;;;;16.97;73.41;100769.16;146605;573;47010;-73
2021/10/14 02:31:49;;;;;;;;;21.50;19.75;;;;;16.93;73.50;100765.56;146605;573;46018;-74
2021/10/14 02:34:23;;;;;;;;;22.75;20.75;;;;;16.91;73.41;100777.72;146606;602;46020;-73
2021/10/14 02:36:57;;;;;;;;;20.00;18.50;;;;;16.90;74.23;100765.47;146605;574;47013;-75
2021/10/14 02:39:31;;;;;;;;;21.75;20.25;;;;;16.90;74.62;100764.59;146605;578;46020;-78
2021/10/14 02:42:05;;;;;;;;;27.50;24.75;;;;;16.87;74.18;100757.53;146605;624;46016;-77
2021/10/14 02:44:39;;;;;;;;;26.00;25.50;;;;;16.84;72.89;100762.69;146607;648;46021;-77
2021/10/14 02:47:14;;;;;;;;;21.50;19.00;;;;;16.84;73.71;100753.09;146603;569;46016;-77
2021/10/14 02:49:57;;;;;;;;;23.25;21.00;;;;;16.82;72.61;100752.19;146603;577;46020;-75
2021/10/14 02:52:31;;;;;;;;;16.75;16.25;;;;;16.82;72.73;100738.19;146606;630;46012;-76
2021/10/14 02:55:05;;;;;;;;;19.75;18.00;;;;;16.80;72.27;100729.44;146601;657;47010;-75
2021/10/14 02:57:39;;;;;;;;;19.50;18.25;;;;;16.77;72.91;100711.03;146601;564;47016;-75
2021/10/14 03:00:13;;;;;;;;;27.50;22.50;;;;;16.73;74.11;100704.78;146609;682;46024;-75
2021/10/14 03:02:47;;;;;;;;;21.50;19.25;;;;;16.68;73.85;100711.63;146604;608;46033;-75
2021/10/14 03:05:21;;;;;;;;;22.00;19.00;;;;;16.65;74.69;100731.63;146607;578;47011;-75
2021/10/14 03:07:54;;;;;;;;;17.50;16.75;;;;;16.62;74.94;100737.66;146602;575;47019;-75
2021/10/14 03:10:28;;;;;;;;;20.75;19.75;;;;;16.61;75.41;100736.78;146608;569;46010;-76
2021/10/14 03:13:02;;;;;;;;;21.25;19.50;;;;;16.60;74.55;100734.09;146601;624;47913;-75
2021/10/14 03:15:36;;;;;;;;;21.75;20.75;;;;;16.64;74.32;100756.91;146605;636;46020;-75
2021/10/14 03:18:10;;;;;;;;;23.00;22.25;;;;;16.64;74.03;100749.06;146603;628;46016;-76
2021/10/14 03:20:47;;;;;;;;;23.25;19.25;;;;;16.65;73.37;100756.06;146606;592;46012;-75
2021/10/14 03:23:21;;;;;;;;;21.00;20.50;;;;;16.65;72.83;100750.81;146603;582;47012;-74
2021/10/14 03:25:54;;;;;;;;;20.75;18.25;;;;;16.66;72.88;100760.44;146606;580;46020;-75
2021/10/14 03:28:29;;;;;;;;;20.50;18.25;;;;;16.68;72.71;100760.50;146605;578;46034;-75
2021/10/14 03:31:03;;;;;;;;;20.25;18.50;;;;;16.68;72.88;100773.59;146607;563;46020;-76
2021/10/14 03:33:37;;;;;;;;;20.25;18.50;;;;;16.70;72.98;100779.72;146603;569;46016;-76
2021/10/14 03:36:11;;;;;;;;;15.75;15.25;;;;;16.70;73.00;100788.50;146606;595;46012;-77
2021/10/14 03:38:45;;;;;;;;;15.25;13.25;;;;;16.69;72.70;100781.47;146603;569;46012;-76
2021/10/14 03:41:19;;;;;;;;;13.00;13.00;;;;;16.70;72.40;100780.66;146606;580;46010;-78
2021/10/14 03:43:53;;;;;;;;;14.00;14.00;;;;;16.68;72.29;100778.81;146596;644;47913;-79
2021/10/14 03:46:27;;;;;;;;;20.00;16.00;;;;;16.68;72.31;100779.69;146607;604;46020;-76
2021/10/14 03:49:01;;;;;;;;;15.75;15.50;;;;;16.69;72.68;100781.47;146604;618;46017;-76
2021/10/14 03:51:35;;;;;;;;;16.50;15.25;;;;;16.68;72.38;100770.97;146604;743;46021;-76
2021/10/14 03:54:12;;;;;;;;;18.00;15.50;;;;;16.65;72.94;100766.53;146605;646;46016;-76
2021/10/14 03:56:46;;;;;;;;;14.00;12.00;;;;;16.61;72.62;100762.06;146605;616;46021;-76
2021/10/14 03:59:20;;;;;;;;;14.50;14.25;;;;;16.62;72.93;100772.56;146602;609;46016;-78
2021/10/14 04:01:54;;;;;;;;;19.00;16.00;;;;;16.62;73.17;100775.19;146605;577;46020;-74
2021/10/14 04:04:28;;;;;;;;;13.75;12.75;;;;;16.61;72.98;100768.19;146601;590;46017;-73
2021/10/14 04:07:02;;;;;;;;;20.25;17.25;;;;;16.60;73.72;100769.03;146609;594;46010;-73
2021/10/14 04:09:36;;;;;;;;;15.75;15.00;;;;;16.55;73.16;100767.12;146604;723;46016;-73
2021/10/14 04:12:10;;;;;;;;;17.25;17.25;;;;;16.52;73.71;100764.44;146604;606;46021;-74
2021/10/14 04:14:44;;;;;;;;;16.50;15.25;;;;;16.48;73.93;100755.59;146603;570;46035;-73
2021/10/14 04:17:18;;;;;;;;;23.00;17.00;;;;;16.51;74.12;100766.16;146605;563;46020;-73
2021/10/14 04:19:52;;;;;;;;;17.75;16.75;;;;;16.51;74.00;100775.72;146605;605;46013;-73
2021/10/14 04:22:27;;;;;;;;;21.00;19.00;;;;;16.54;74.13;100787.19;146606;564;47010;-74
2021/10/14 04:25:01;;;;;;;;;21.50;19.25;;;;;16.58;73.94;100772.44;146605;565;46012;-73
2021/10/14 04:27:35;;;;;;;;;20.50;18.75;;;;;16.62;73.81;100772.56;146607;610;46010;-73
2021/10/14 04:30:10;;;;;;;;;18.25;17.00;;;;;16.65;73.90;100779.63;146603;614;46012;-73
2021/10/14 04:32:45;;;;;;;;;17.00;17.00;;;;;16.65;73.35;100782.25;146606;627;46010;-76
2021/10/14 04:35:19;;;;;;;;;17.00;17.00;;;;;16.65;73.41;100782.25;146604;606;46016;-75
2021/10/14 04:37:54;;;;;;;;;20.25;16.50;;;;;16.66;73.65;100783.13;146606;608;46029;-75
2021/10/14 04:40:27;;;;;;;;;23.00;20.75;;;;;16.65;74.36;100779.63;146603;573;47913;-75
2021/10/14 04:43:02;;;;;;;;;14.75;13.75;;;;;16.63;73.63;100771.75;146605;577;46021;-76
2021/10/14 04:45:36;;;;;;;;;25.75;21.25;;;;;16.65;73.62;100771.75;146602;563;46016;-75
2021/10/14 04:48:10;;;;;;;;;22.75;18.00;;;;;16.66;73.97;100768.28;146606;590;47010;-76
2021/10/14 04:50:43;;;;;;;;;18.50;15.75;;;;;16.71;73.63;100773.66;146605;569;46012;-77
2021/10/14 04:53:17;;;;;;;;;16.25;15.00;;;;;16.74;73.67;100779.00;146609;739;46010;-76
2021/10/14 04:55:51;;;;;;;;;16.75;15.75;;;;;16.74;73.44;100764.16;146601;592;47018;-75
2021/10/14 04:58:25;;;;;;;;;19.50;17.75;;;;;16.76;73.41;100772.06;146606;582;46905;-76
2021/10/14 05:00:59;;;;;;;;;17.75;15.50;;;;;16.77;73.78;100780.00;146605;619;46012;-75
2021/10/14 05:03:33;;;;;;;;;20.25;17.50;;;;;16.80;73.32;100784.44;146604;610;46905;-75
2021/10/14 05:06:06;;;;;;;;;18.75;16.00;;;;;16.82;73.29;100811.53;146603;566;47019;-76
2021/10/14 05:08:40;;;;;;;;;16.00;13.25;;;;;16.82;72.93;100809.81;146606;591;47010;-76
2021/10/14 05:11:16;;;;;;;;;21.50;18.75;;;;;16.83;73.05;100805.47;146605;659;46013;-75
2021/10/14 05:13:50;;;;;;;;;19.50;16.25;;;;;16.80;72.41;100808.00;146603;611;46020;-76
2021/10/14 05:16:32;;;;;;;;;17.00;16.00;;;;;16.81;72.57;100807.13;146602;640;47018;-76
2021/10/14 05:19:06;;;;;;;;;18.25;15.25;;;;;16.82;72.88;100824.63;146605;586;47012;-76
2021/10/14 05:21:40;;;;;;;;;19.00;16.00;;;;;16.77;72.16;100815.75;146603;585;46033;-76
2021/10/14 05:24:14;;;;;;;;;20.00;15.75;;;;;16.77;72.08;100826.25;146604;569;46020;-76
2021/10/14 05:26:48;;;;;;;;;17.75;16.25;;;;;16.72;71.78;100826.06;146603;618;46017;-76
2021/10/14 05:29:22;;;;;;;;;19.00;16.25;;;;;16.71;71.64;100821.69;146605;607;46020;-77
2021/10/14 05:31:56;;;;;;;;;17.50;16.50;;;;;16.69;72.20;100812.87;146603;613;46016;-76
2021/10/14 05:34:30;;;;;;;;;20.50;17.50;;;;;16.70;71.99;100816.37;146607;579;46021;-76
2021/10/14 05:37:03;;;;;;;;;17.75;14.25;;;;;16.70;72.86;100825.16;146604;639;46016;-77
2021/10/14 05:39:38;;;;;;;;;19.75;17.75;;;;;16.70;72.77;100824.25;146606;574;47010;-79
2021/10/14 05:42:11;;;;;;;;;19.50;17.00;;;;;16.70;72.54;100837.34;146604;580;46027;-78
2021/10/14 05:44:45;;;;;;;;;17.50;14.75;;;;;16.70;72.02;100835.62;146608;585;46031;-79
2021/10/14 05:47:19;;;;;;;;;17.00;15.75;;;;;16.73;72.35;100827.84;146607;566;46012;-79
2021/10/14 05:49:53;;;;;;;;;21.00;17.00;;;;;16.76;72.11;100827.97;146603;595;46021;-78
2021/10/14 05:52:27;;;;;;;;;18.25;16.25;;;;;16.75;73.57;100833.13;146600;584;47012;-78
2021/10/14 05:55:01;;;;;;;;;15.75;14.75;;;;;16.72;72.08;100833.91;146607;670;46021;-80
2021/10/14 05:57:35;;;;;;;;;17.25;16.00;;;;;16.68;72.52;100849.50;146604;628;47012;-79
2021/10/14 06:00:11;;;;;;;;;15.75;13.00;;;;;16.66;71.45;100843.34;146607;606;47010;-79
2021/10/14 06:02:46;;;;;;;;;19.50;16.00;;;;;16.63;72.31;100842.44;146604;620;46016;-78
2021/10/14 06:05:20;;;;;;;;;12.25;12.25;;;;;16.59;72.51;100851.00;146607;585;46020;-78
2021/10/14 06:07:53;;;;;;;;;18.50;15.00;;;;;16.53;72.51;100858.69;146602;615;46016;-76
2021/10/14 06:10:28;;;;;;;;;22.00;17.50;;;;;16.49;72.46;100853.34;146606;634;46021;-77
2021/10/14 06:13:01;;;;;;;;;15.25;14.75;;;;;16.44;73.03;100861.03;146603;574;47913;-77
2021/10/14 06:15:35;;;;;;;;;23.25;17.00;;;;;16.37;72.72;100856.47;146606;613;46010;-82
2021/10/14 06:18:09;;;;;;;;;22.25;21.25;;;;;16.33;72.61;100857.22;146603;595;46017;-82
2021/10/14 06:20:43;;;;;;;;;17.50;16.00;;;;;16.30;72.49;100858.03;146607;687;46012;-81
2021/10/14 06:23:17;;;;;;;;;20.75;16.50;;;;;16.29;72.34;100868.44;146604;565;47012;-80
2021/10/14 06:25:51;;;;;;;;;21.25;18.50;;;;;16.31;72.33;100856.28;146607;668;46021;-80
2021/10/14 06:28:25;;;;;;;;;23.50;20.00;;;;;16.33;72.27;100858.13;146602;594;47012;-76
2021/10/14 06:30:59;;;;;;;;;20.75;18.75;;;;;16.38;72.82;100863.47;146606;571;46020;-77
2021/10/14 06:33:33;;;;;;;;;16.75;14.25;;;;;16.38;72.54;100859.12;146604;566;46017;-76
2021/10/14 06:36:07;;;;;;;;;15.00;13.50;;;;;16.41;72.62;100853.09;146607;600;46010;-76
2021/10/14 06:38:41;;;;;;;;;9.50;9.50;;;;;16.38;72.14;100866.97;146602;597;46016;-77
2021/10/14 06:41:15;;;;;;;;;11.00;10.00;;;;;16.34;72.18;100872.97;146604;653;46021;-76
2021/10/14 06:43:49;;;;;;;;;7.75;7.50;;;;;16.32;72.46;100885.13;146603;626;46016;-77
2021/10/14 06:46:23;;;;;;;;;9.75;9.50;;;;;16.29;72.06;100886.75;146604;576;47010;-80
2021/10/14 06:49:00;;;;;;;;;7.00;6.00;;;;;16.26;71.98;100881.41;146606;576;46012;-84
2021/10/14 06:51:37;;;;;;;;;10.00;10.00;;;;;16.20;72.23;100890.00;146610;686;46008;-82
2021/10/14 06:54:12;;;;;;;;;8.75;8.00;;;;;16.16;71.06;100904.66;146604;608;45913;-80
2021/10/14 06:56:46;;;;;;;;;12.25;12.25;;;;;16.14;70.60;100922.06;146604;705;46010;-82
2021/10/14 06:59:20;;;;;;;;;12.00;10.75;;;;;16.07;70.58;100912.22;146606;571;46016;-81
2021/10/14 07:01:54;;;;;;;;;9.50;8.25;;;;;16.04;71.20;100912.13;146607;598;46012;-81
2021/10/14 07:04:28;;;;;;;;;10.75;10.75;;;;;16.03;71.06;100912.09;146603;620;46012;-80
2021/10/14 07:07:02;;;;;;;;;10.50;10.00;;;;;16.03;71.32;100901.63;146606;572;46020;-83
2021/10/14 07:09:35;;;;;;;;;10.00;9.00;;;;;16.08;70.83;100897.44;146606;583;45913;-82
2021/10/14 07:12:12;;;;;;;;;12.25;12.25;;;;;16.15;71.03;100891.56;146603;624;47012;-80
2021/10/14 07:14:48;;;;;;;;;12.75;9.25;;;;;16.22;71.02;100897.87;146603;581;47012;-81
2021/10/14 07:17:21;;;;;;;;;11.50;10.00;;;;;16.26;70.85;100904.97;146605;573;46012;-80
2021/10/14 07:19:59;;;;;;;;;7.50;7.50;;;;;16.26;70.49;100910.19;146601;743;47018;-80
2021/10/14 07:22:33;;;;;;;;;7.00;6.50;;;;;16.19;70.22;100901.28;146607;709;45050;-80
2021/10/14 07:25:08;;;;;;;;;8.75;7.25;;;;;16.17;71.02;100901.25;146604;589;46016;-81
2021/10/14 07:27:45;;;;;;;;;8.00;7.25;;;;;16.15;69.92;100900.28;146605;624;46020;-79
2021/10/14 07:30:19;;;;;;;;;9.75;8.00;;;;;16.16;69.99;100906.41;146604;599;46016;-80
2021/10/14 07:32:59;;;;;;;;;9.75;7.50;;;;;16.16;71.16;100909.03;146602;577;46020;-80
2021/10/14 07:35:36;;;;;;;;;12.50;9.75;;;;;16.15;70.65;100907.25;146599;572;47012;-81
2021/10/14 07:38:11;;;;;;;;;10.50;9.00;;;;;16.13;71.11;100901.06;146605;660;47010;-81
2021/10/14 07:40:47;;;;;;;;;9.00;7.75;;;;;16.12;70.80;100887.13;146603;613;46016;-81
2021/10/14 07:43:21;;;;;;;;;9.00;8.00;;;;;16.15;71.06;100881.97;146608;630;46020;-80
2021/10/14 07:45:55;;;;;;;;;11.00;9.25;;;;;16.16;70.59;100890.72;146604;679;46016;-80
2021/10/14 07:48:29;;;;;;;;;11.25;10.25;;;;;16.17;70.87;100895.13;146607;569;46020;-79
2021/10/14 07:51:02;;;;;;;;;13.25;13.25;;;;;16.15;70.27;100896.78;146605;619;46016;-81
2021/10/14 07:53:36;;;;;;;;;12.50;11.25;;;;;16.12;70.90;100894.09;146607;580;46021;-81
2021/10/14 07:56:10;;;;;;;;;14.00;12.75;;;;;16.10;70.71;100894.00;146602;637;47012;-80
2021/10/14 07:58:45;;;;;;;;;19.50;16.50;;;;;16.10;70.32;100894.00;146602;563;46020;-80
2021/10/14 08:01:18;;;;;;;;;19.75;16.25;;;;;16.09;70.92;100902.72;146603;594;47013;-80
2021/10/14 08:03:53;;;;;;;;;23.50;18.50;;;;;16.08;71.22;100918.37;146607;577;47012;-81
2021/10/14 08:06:27;;;;;;;;;23.25;20.25;;;;;16.10;70.50;100919.28;146605;572;46913;-80
2021/10/14 08:09:01;;;;;;;;;23.75;20.75;;;;;16.09;70.92;100921.03;146605;635;46020;-80
2021/10/14 08:11:35;;;;;;;;;22.25;19.25;;;;;16.10;71.01;100908.81;146605;594;45913;-79
2021/10/14 08:14:09;;;;;;;;;20.25;17.50;;;;;16.08;71.40;100905.28;146607;563;46020;-81
2021/10/14 08:16:43;;;;;;;;;23.25;21.00;;;;;16.11;71.18;100906.28;146603;581;46016;-79
2021/10/14 08:19:17;;;;;;;;;16.50;13.00;;;;;16.14;70.62;100909.00;146606;604;46020;-80
2021/10/14 08:21:51;;;;;;;;;15.50;14.25;;;;;16.18;70.35;100907.34;146604;580;46016;-80
2021/10/14 08:24:25;;;;;;;;;18.50;14.25;;;;;16.26;71.38;100904.97;146602;579;46031;-81
2021/10/14 08:26:59;;;;;;;;;15.00;13.75;;;;;16.35;70.86;100907.87;146604;583;47018;-80
2021/10/14 08:29:33;;;;;;;;;16.25;14.25;;;;;16.44;70.01;100913.38;146607;563;46020;-80
2021/10/14 08:32:07;;;;;;;;;11.00;10.00;;;;;16.53;69.89;100908.41;146605;583;46013;-81
2021/10/14 08:34:42;;;;;;;;;9.75;8.50;;;;;16.57;69.58;100907.69;146606;666;46020;-79
2021/10/14 08:37:21;;;;;;;;;10.25;10.00;;;;;16.62;69.28;100911.31;146603;623;46017;-81
2021/10/14 08:39:56;;;;;;;;;13.00;11.00;;;;;16.64;68.90;100906.12;146605;579;47009;-81
2021/10/14 08:42:30;;;;;;;;;11.50;9.00;;;;;16.63;68.83;100904.34;146604;633;46012;-80
2021/10/14 08:45:10;;;;;;;;;11.25;10.25;;;;;16.63;69.41;100904.34;146607;676;46020;-81
2021/10/14 08:47:44;;;;;;;;;10.25;9.25;;;;;16.61;68.96;100904.31;146604;572;46016;-79
2021/10/14 08:50:18;;;;;;;;;10.00;8.00;;;;;16.60;69.34;100906.88;146606;586;46016;-83
2021/10/14 08:52:52;;;;;;;;;11.00;8.75;;;;;16.58;68.73;100898.09;146603;654;47018;-79
2021/10/14 08:55:31;;;;;;;;;11.00;9.00;;;;;16.58;67.86;100904.22;146607;607;46020;-78
2021/10/14 08:58:07;;;;;;;;;13.00;11.50;;;;;16.55;68.53;100904.13;146604;619;46016;-83
2021/10/14 09:00:44;;;;;;;;;11.25;10.25;;;;;16.55;68.57;100903.25;146606;589;46021;-81
2021/10/14 09:03:36;;;;;;;;;13.00;11.00;;;;;16.54;68.25;100910.22;146605;588;46016;-79
2021/10/14 09:06:16;;;;;;;;;11.00;10.25;;;;;16.49;69.08;100908.31;146607;587;46020;-80
2021/10/14 09:08:58;;;;;;;;;11.00;9.25;;;;;16.47;68.96;100899.50;146599;677;47012;-82
2021/10/14 09:11:42;;;;;;;;;14.25;12.25;;;;;16.46;68.39;100897.75;146605;579;47010;-80
2021/10/14 09:14:19;;;;;;;;;11.75;10.50;;;;;16.44;68.14;100912.50;146605;567;46012;-81
2021/10/14 09:16:53;;;;;;;;;11.75;11.00;;;;;16.44;68.02;100916.00;146607;590;46009;-79
2021/10/14 09:19:30;;;;;;;;;12.75;11.50;;;;;16.48;68.33;100919.59;146605;602;46016;-80
2021/10/14 09:22:05;;;;;;;;;17.00;11.75;;;;;16.54;68.40;100912.84;146607;570;47012;-79
2021/10/14 09:24:42;;;;;;;;;10.25;9.75;;;;;16.61;67.94;100904.31;146602;569;46016;-81
2021/10/14 09:27:19;;;;;;;;;13.00;12.00;;;;;16.69;68.70;100901.91;146604;572;46020;-80
2021/10/14 09:29:53;;;;;;;;;9.75;9.00;;;;;16.79;68.72;100905.72;146603;696;46017;-80
2021/10/14 09:32:27;;;;;;;;;10.50;9.50;;;;;16.87;67.39;100900.72;146604;573;47010;-79
2021/10/14 09:35:04;;;;;;;;;10.50;10.50;;;;;16.90;67.08;100906.91;146603;576;46016;-80
2021/10/14 09:37:38;;;;;;;;;13.75;11.00;;;;;16.92;67.32;100900.00;146606;635;46008;-79
2021/10/14 09:40:14;;;;;;;;;11.00;9.25;;;;;16.89;67.87;100897.28;146602;598;46016;-81
2021/10/14 09:42:57;;;;;;;;;12.50;10.75;;;;;16.89;68.10;100899.03;146604;591;46020;-84
2021/10/14 09:45:36;;;;;;;;;10.00;10.00;;;;;16.89;67.74;100886.81;146604;705;45911;-81
2021/10/14 09:48:12;;;;;;;;;13.25;12.25;;;;;16.90;67.87;100895.56;146610;597;46012;-82
2021/10/14 09:50:50;;;;;;;;;12.50;9.75;;;;;16.92;67.49;100889.53;146605;647;46012;-80
2021/10/14 09:53:27;;;;;;;;;14.00;12.25;;;;;16.99;68.09;100891.47;146608;625;46021;-83
2021/10/14 09:56:01;;;;;;;;;15.00;12.75;;;;;17.13;67.98;100890.94;146602;566;46016;-83
2021/10/14 09:58:35;;;;;;;;;15.25;15.25;;;;;17.18;66.93;100882.38;146605;566;47010;-81
2021/10/14 10:01:14;;;;;;;;;14.00;11.50;;;;;17.20;67.72;100885.94;146603;638;47018;-81
2021/10/14 10:03:48;;;;;;;;;12.75;12.75;;;;;17.12;67.26;100883.94;146606;574;46020;-82
2021/10/14 10:06:29;;;;;;;;;9.00;9.00;;;;;17.05;67.44;100882.88;146604;592;46911;-82
2021/10/14 10:09:18;;;;;;;;;9.75;9.50;;;;;17.00;67.18;100872.25;146605;635;46010;-83
2021/10/14 10:11:57;;;;;;;;;9.00;7.00;;;;;16.95;67.44;100866.03;146604;631;47012;-80
2021/10/14 10:14:32;;;;;;;;;11.25;7.50;;;;;16.95;67.69;100855.56;146610;569;46011;-82
2021/10/14 10:17:08;;;;;;;;;8.50;8.00;;;;;16.94;67.32;100861.63;146605;612;46016;-83
2021/10/14 10:19:52;;;;;;;;;9.50;9.50;;;;;16.96;68.20;100864.28;146607;578;46020;-82
2021/10/14 10:22:52;;;;;;;;;8.00;7.00;;;;;15.80;67.06;100665.59;146605;638;47012;-82
2021/10/14 10:25:43;;;;;;;;;8.25;8.00;;;;;16.87;66.62;100854.44;146606;657;46020;-82
2021/10/14 10:28:40;;;;;;;;;8.00;8.00;;;;;15.63;67.48;100652.88;146605;677;46034;-81
2021/10/14 10:31:14;;;;;;;;;11.00;8.33;;;;;16.70;68.19;100847.81;146607;636;46021;-81
2021/10/14 10:34:06;;;;;;;;;9.50;9.50;;;;;16.66;67.60;100844.22;146604;595;46016;-81
2021/10/14 10:36:52;;;;;;;;;12.00;8.50;;;;;16.63;68.18;100838.91;146607;639;45022;-82
2021/10/14 10:40:03;;;;;;;;;9.00;8.75;;;;;16.63;68.34;100825.81;146601;582;46017;-81
2021/10/14 10:43:13;;;;;;;;;13.50;10.50;;;;;15.55;68.21;100624.75;146604;564;46020;-81
2021/10/14 10:45:53;;;;;;;;;11.75;11.50;;;;;16.75;68.95;100841.91;146606;666;46034;-81
2021/10/14 10:48:44;;;;;;;;;14.50;13.25;;;;;16.74;67.74;100840.09;146606;598;47012;-81
2021/10/14 10:51:32;;;;;;;;;11.33;8.33;;;;;16.72;67.49;100838.28;146606;597;46016;-81
2021/10/14 10:54:06;;;;;;;;;10.33;8.67;;;;;16.68;67.70;100839.91;146608;662;46021;-81
2021/10/14 10:56:47;;;;;;;;;8.67;7.33;;;;;16.66;67.83;100840.72;146604;577;46018;-80
2021/10/14 10:59:25;;;;;;;;;5.00;5.00;;;;;16.63;67.60;100841.50;146608;605;46021;-81
2021/10/14 11:02:02;;;;;;;;;9.67;8.67;;;;;16.61;67.68;100848.47;146605;622;46016;-81
2021/10/14 11:04:36;;;;;;;;;10.33;7.00;;;;;16.59;67.63;100847.50;146604;574;46025;-80
2021/10/14 11:07:14;;;;;;;;;6.00;6.00;;;;;16.56;67.48;100848.31;146605;599;46018;-81
2021/10/14 11:09:48;;;;;;;;;6.00;6.00;;;;;16.55;67.71;100843.03;146610;577;46020;-83
2021/10/14 11:12:22;;;;;;;;;10.00;9.33;;;;;16.56;67.73;100831.72;146603;591;47016;-80
2021/10/14 11:15:19;;;;;;;;;4.67;4.00;;;;;16.63;67.82;100837.19;146608;583;46021;-81
2021/10/14 11:18:04;;;;;;;;;5.67;4.33;;;;;16.65;67.17;100845.06;146600;584;46016;-80
2021/10/14 11:20:39;;;;;;;;;9.00;8.00;;;;;16.66;67.30;100848.56;146606;633;46020;-83
2021/10/14 11:23:12;;;;;;;;;8.67;7.00;;;;;16.62;66.19;100847.59;146605;604;46914;-82
2021/10/14 11:25:47;;;;;;;;;6.67;6.33;;;;;16.56;67.19;100845.69;146608;641;45020;-80
2021/10/14 11:28:20;;;;;;;;;5.00;5.00;;;;;16.55;67.61;100843.03;146602;615;46016;-82
2021/10/14 11:30:58;;;;;;;;;9.00;9.00;;;;;16.53;67.85;100840.37;146608;585;46010;-81
2021/10/14 11:33:38;;;;;;;;;6.50;5.75;;;;;16.52;68.05;100848.19;146600;640;47012;-81
2021/10/14 11:36:12;;;;;;;;;8.00;8.00;;;;;16.55;67.48;100857.00;146607;578;46020;-80
2021/10/14 11:38:46;;;;;;;;;6.00;6.00;;;;;16.54;67.68;100868.34;146604;696;46016;-82
2021/10/14 11:41:23;;;;;;;;;7.75;7.75;;;;;16.50;67.47;100866.44;146606;579;46020;-80
2021/10/14 11:44:04;;;;;;;;;7.25;7.25;;;;;16.45;67.93;100854.06;146604;640;46012;-82
2021/10/14 11:46:42;;;;;;;;;10.33;7.00;;;;;16.40;68.29;100853.94;146609;596;46020;-82
2021/10/14 11:49:16;;;;;;;;;10.00;9.50;;;;;16.38;68.19;100861.72;146602;634;47012;-81